createdAt,value
2018-05-26T00:00:36.448Z,997.15
2018-05-26T00:01:36.484Z,997.11
2018-05-26T00:02:36.520Z,997.12
2018-05-26T00:03:36.554Z,997.15
2018-05-26T00:04:36.590Z,997.11
2018-05-26T00:05:36.629Z,997.12
2018-05-26T00:06:36.662Z,997.14
2018-05-26T00:07:36.698Z,997.12
2018-05-26T00:08:36.732Z,997.04
2018-05-26T00:09:36.768Z,997.11
2018-05-26T00:10:36.804Z,997.08
2018-05-26T00:11:36.841Z,997.07
2018-05-26T00:12:36.875Z,997.08
2018-05-26T00:13:36.912Z,997.04
2018-05-26T00:14:36.946Z,997.06
2018-05-26T00:15:36.982Z,997.02
2018-05-26T00:16:37.018Z,997.04
2018-05-26T00:17:37.054Z,997.05
2018-05-26T00:18:37.090Z,997.05
2018-05-26T00:19:37.127Z,997.07
2018-05-26T00:20:37.160Z,997.08
2018-05-26T00:21:37.195Z,997.12
2018-05-26T00:22:37.235Z,997.13
2018-05-26T00:23:37.275Z,997.12
2018-05-26T00:24:37.301Z,997.11
2018-05-26T00:25:37.388Z,997.15
2018-05-26T00:26:37.374Z,997.14
2018-05-26T00:27:37.410Z,997.12
2018-05-26T00:28:37.444Z,997.15
2018-05-26T00:29:37.481Z,997.17
2018-05-26T00:30:37.516Z,997.16
2018-05-26T00:31:37.552Z,997.11
2018-05-26T00:32:37.587Z,997.15
2018-05-26T00:33:37.623Z,997.14
2018-05-26T00:34:37.658Z,997.11
2018-05-26T00:35:37.696Z,997.12
2018-05-26T00:36:37.728Z,997.05
2018-05-26T00:37:37.765Z,997.10
2018-05-26T00:38:37.802Z,997.11
2018-05-26T00:39:37.837Z,997.09
2018-05-26T00:40:37.871Z,997.09
2018-05-26T00:41:37.907Z,997.11
2018-05-26T00:42:37.943Z,997.07
2018-05-26T00:43:37.978Z,997.08
2018-05-26T00:44:38.012Z,997.05
2018-05-26T00:45:38.048Z,997.10
2018-05-26T00:46:38.085Z,997.11
2018-05-26T00:47:38.121Z,997.08
2018-05-26T00:48:38.156Z,997.10
2018-05-26T00:49:38.191Z,997.11
2018-05-26T00:50:38.227Z,997.10
2018-05-26T00:51:38.263Z,997.12
2018-05-26T00:52:38.297Z,997.09
2018-05-26T00:53:38.333Z,997.09
2018-05-26T00:54:38.367Z,997.12
2018-05-26T00:55:38.404Z,997.06
2018-05-26T00:56:38.438Z,997.11
2018-05-26T00:57:38.474Z,997.09
2018-05-26T00:58:38.511Z,997.08
2018-05-26T00:59:38.547Z,997.16
2018-05-26T01:00:38.581Z,997.14
2018-05-26T01:01:38.616Z,997.15
2018-05-26T01:02:38.652Z,997.22
2018-05-26T01:03:38.688Z,997.22
2018-05-26T01:04:38.724Z,997.23
2018-05-26T01:05:38.759Z,997.19
2018-05-26T01:06:38.796Z,997.20
2018-05-26T01:07:38.830Z,997.21
2018-05-26T01:08:38.863Z,997.22
2018-05-26T01:09:38.899Z,997.23
2018-05-26T01:10:38.947Z,997.22
2018-05-26T01:11:38.972Z,997.24
2018-05-26T01:12:39.006Z,997.24
2018-05-26T01:13:39.041Z,997.23
2018-05-26T01:14:39.077Z,997.27
2018-05-26T01:15:39.113Z,997.21
2018-05-26T01:16:39.152Z,997.24
2018-05-26T01:17:39.182Z,997.24
2018-05-26T01:18:39.221Z,997.20
2018-05-26T01:19:39.255Z,997.19
2018-05-26T01:20:39.293Z,997.21
2018-05-26T01:21:39.325Z,997.25
2018-05-26T01:22:39.361Z,997.23
2018-05-26T01:23:39.395Z,997.25
2018-05-26T01:24:39.433Z,997.28
2018-05-26T01:25:39.466Z,997.24
2018-05-26T01:26:39.502Z,997.25
2018-05-26T01:27:39.537Z,997.21
2018-05-26T01:28:39.574Z,997.23
2018-05-26T01:29:39.614Z,997.25
2018-05-26T01:30:39.645Z,997.24
2018-05-26T01:31:39.680Z,997.26
2018-05-26T01:32:39.714Z,997.25
2018-05-26T01:33:39.749Z,997.25
2018-05-26T01:34:39.786Z,997.25
2018-05-26T01:35:39.823Z,997.28
2018-05-26T01:36:39.856Z,997.24
2018-05-26T01:37:39.892Z,997.25
2018-05-26T01:38:39.931Z,997.25
2018-05-26T01:39:39.963Z,997.25
2018-05-26T01:40:39.998Z,997.30
2018-05-26T01:41:40.032Z,997.25
2018-05-26T01:42:40.070Z,997.22
2018-05-26T01:43:40.104Z,997.23
2018-05-26T01:44:40.138Z,997.21
2018-05-26T01:45:40.174Z,997.18
2018-05-26T01:46:40.210Z,997.20
2018-05-26T01:47:40.245Z,997.23
2018-05-26T01:48:40.283Z,997.19
2018-05-26T01:49:40.316Z,997.17
2018-05-26T01:50:40.351Z,997.19
2018-05-26T01:51:40.387Z,997.20
2018-05-26T01:52:40.422Z,997.19
2018-05-26T01:53:40.458Z,997.19
2018-05-26T01:54:40.494Z,997.21
2018-05-26T01:55:40.528Z,997.20
2018-05-26T01:56:40.562Z,997.21
2018-05-26T01:57:40.602Z,997.17
2018-05-26T01:58:40.638Z,997.22
2018-05-26T01:59:40.670Z,997.18
2018-05-26T02:00:40.704Z,997.22
2018-05-26T02:01:40.739Z,997.21
2018-05-26T02:02:40.774Z,997.17
2018-05-26T02:03:40.811Z,997.15
2018-05-26T02:04:40.844Z,997.17
2018-05-26T02:05:40.882Z,997.18
2018-05-26T02:06:40.917Z,997.12
2018-05-26T02:07:40.952Z,997.11
2018-05-26T02:08:40.986Z,997.15
2018-05-26T02:09:41.022Z,997.14
2018-05-26T02:10:41.057Z,997.21
2018-05-26T02:11:41.097Z,997.15
2018-05-26T02:12:41.128Z,997.14
2018-05-26T02:13:41.164Z,997.17
2018-05-26T02:14:41.199Z,997.13
2018-05-26T02:15:41.235Z,997.15
2018-05-26T02:16:41.270Z,997.12
2018-05-26T02:17:41.306Z,997.12
2018-05-26T02:18:41.338Z,997.14
2018-05-26T02:19:41.375Z,997.13
2018-05-26T02:20:41.409Z,997.13
2018-05-26T02:21:41.446Z,997.11
2018-05-26T02:22:41.481Z,997.13
2018-05-26T02:23:41.516Z,997.13
2018-05-26T02:24:41.556Z,997.17
2018-05-26T02:25:41.587Z,997.17
2018-05-26T02:26:41.621Z,997.18
2018-05-26T02:27:41.657Z,997.16
2018-05-26T02:28:41.691Z,997.15
2018-05-26T02:29:41.728Z,997.16
2018-05-26T02:30:41.763Z,997.20
2018-05-26T02:31:41.798Z,997.20
2018-05-26T02:32:41.833Z,997.20
2018-05-26T02:33:41.867Z,997.19
2018-05-26T02:34:41.904Z,997.21
2018-05-26T02:35:41.943Z,997.18
2018-05-26T02:36:41.974Z,997.22
2018-05-26T02:37:42.008Z,997.24
2018-05-26T02:38:42.044Z,997.24
2018-05-26T02:39:42.079Z,997.25
2018-05-26T02:40:42.116Z,997.25
2018-05-26T02:41:42.151Z,997.26
2018-05-26T02:42:42.185Z,997.28
2018-05-26T02:43:42.220Z,997.28
2018-05-26T02:44:42.255Z,997.27
2018-05-26T02:45:42.290Z,997.26
2018-05-26T02:46:42.326Z,997.29
2018-05-26T02:47:42.360Z,997.27
2018-05-26T02:48:42.397Z,997.32
2018-05-26T02:49:42.430Z,997.36
2018-05-26T02:50:42.465Z,997.38
2018-05-26T02:51:42.525Z,997.41
2018-05-26T02:52:42.538Z,997.43
2018-05-26T02:53:42.570Z,997.42
2018-05-26T02:54:42.604Z,997.39
2018-05-26T02:55:42.642Z,997.40
2018-05-26T02:56:42.674Z,997.41
2018-05-26T02:57:42.709Z,997.40
2018-05-26T02:58:42.759Z,997.40
2018-05-26T02:59:42.780Z,997.44
2018-05-26T03:00:42.815Z,997.40
2018-05-26T03:01:42.856Z,997.45
2018-05-26T03:02:42.885Z,997.46
2018-05-26T03:03:42.919Z,997.42
2018-05-26T03:04:42.954Z,997.41
2018-05-26T03:05:42.990Z,997.39
2018-05-26T03:06:43.024Z,997.42
2018-05-26T03:07:43.058Z,997.43
2018-05-26T03:08:43.093Z,997.38
2018-05-26T03:09:43.128Z,997.42
2018-05-26T03:10:43.165Z,997.42
2018-05-26T03:11:43.197Z,997.40
2018-05-26T03:12:43.236Z,997.46
2018-05-26T03:13:43.272Z,997.44
2018-05-26T03:14:43.308Z,997.46
2018-05-26T03:15:43.339Z,997.47
2018-05-26T03:16:43.382Z,997.51
2018-05-26T03:17:43.407Z,997.49
2018-05-26T03:18:43.442Z,997.49
2018-05-26T03:19:43.485Z,997.55
2018-05-26T03:20:43.511Z,997.50
2018-05-26T03:21:43.545Z,997.52
2018-05-26T03:22:43.580Z,997.53
2018-05-26T03:23:43.616Z,997.51
2018-05-26T03:24:43.660Z,997.49
2018-05-26T03:25:43.684Z,997.50
2018-05-26T03:26:43.719Z,997.47
2018-05-26T03:27:43.753Z,997.47
2018-05-26T03:28:43.787Z,997.50
2018-05-26T03:29:43.821Z,997.47
2018-05-26T03:30:43.860Z,997.45
2018-05-26T03:31:43.893Z,997.42
2018-05-26T03:32:43.925Z,997.46
2018-05-26T03:33:43.961Z,997.50
2018-05-26T03:34:43.996Z,997.50
2018-05-26T03:35:44.033Z,997.45
2018-05-26T03:36:44.064Z,997.49
2018-05-26T03:37:44.099Z,997.48
2018-05-26T03:38:44.134Z,997.51
2018-05-26T03:39:44.168Z,997.49
2018-05-26T03:40:44.203Z,997.49
2018-05-26T03:41:44.236Z,997.53
2018-05-26T03:42:44.273Z,997.52
2018-05-26T03:43:44.306Z,997.52
2018-05-26T03:44:44.340Z,997.57
2018-05-26T03:45:44.375Z,997.56
2018-05-26T03:46:44.409Z,997.57
2018-05-26T03:47:44.444Z,997.53
2018-05-26T03:48:44.477Z,997.50
2018-05-26T03:49:44.514Z,997.52
2018-05-26T03:50:44.547Z,997.54
2018-05-26T03:51:44.584Z,997.54
2018-05-26T03:52:44.613Z,997.54
2018-05-26T03:53:44.650Z,997.54
2018-05-26T03:54:44.684Z,997.56
2018-05-26T03:55:44.720Z,997.61
2018-05-26T03:56:44.753Z,997.63
2018-05-26T03:57:44.787Z,997.58
2018-05-26T03:58:44.824Z,997.63
2018-05-26T03:59:44.857Z,997.63
2018-05-26T04:00:44.892Z,997.68
2018-05-26T04:01:44.930Z,997.68
2018-05-26T04:02:44.960Z,997.70
2018-05-26T04:03:44.994Z,997.71
2018-05-26T04:04:45.030Z,997.73
2018-05-26T04:05:45.097Z,997.75
2018-05-26T04:06:45.098Z,997.75
2018-05-26T04:07:45.132Z,997.77
2018-05-26T04:08:45.166Z,997.83
2018-05-26T04:09:45.201Z,997.83
2018-05-26T04:10:45.235Z,997.86
2018-05-26T04:11:45.271Z,997.87
2018-05-26T04:12:45.304Z,997.90
2018-05-26T04:13:45.338Z,997.86
2018-05-26T04:14:45.374Z,997.86
2018-05-26T04:15:45.409Z,997.88
2018-05-26T04:16:45.442Z,997.92
2018-05-26T04:17:45.476Z,997.91
2018-05-26T04:18:45.512Z,997.90
2018-05-26T04:19:45.548Z,997.91
2018-05-26T04:20:45.581Z,997.90
2018-05-26T04:21:45.614Z,997.92
2018-05-26T04:22:45.652Z,997.94
2018-05-26T04:23:45.686Z,997.94
2018-05-26T04:24:45.719Z,997.92
2018-05-26T04:25:45.755Z,997.97
2018-05-26T04:26:45.789Z,997.96
2018-05-26T04:27:45.823Z,997.99
2018-05-26T04:28:45.859Z,998.02
2018-05-26T04:29:45.893Z,998.03
2018-05-26T04:30:45.927Z,998.03
2018-05-26T04:31:45.963Z,998.03
2018-05-26T04:32:45.998Z,998.08
2018-05-26T04:33:46.032Z,998.06
2018-05-26T04:34:46.066Z,998.10
2018-05-26T04:35:46.102Z,998.09
2018-05-26T04:36:46.136Z,998.09
2018-05-26T04:37:46.171Z,998.09
2018-05-26T04:38:46.210Z,998.14
2018-05-26T04:39:46.241Z,998.16
2018-05-26T04:40:46.276Z,998.16
2018-05-26T04:41:46.310Z,998.15
2018-05-26T04:42:46.346Z,998.17
2018-05-26T04:43:46.381Z,998.22
2018-05-26T04:44:46.415Z,998.21
2018-05-26T04:45:46.451Z,998.28
2018-05-26T04:46:46.484Z,998.27
2018-05-26T04:47:46.519Z,998.29
2018-05-26T04:48:46.555Z,998.29
2018-05-26T04:49:46.595Z,998.27
2018-05-26T04:50:46.625Z,998.32
2018-05-26T04:51:46.661Z,998.33
2018-05-26T04:52:46.695Z,998.33
2018-05-26T04:53:46.730Z,998.31
2018-05-26T04:54:46.767Z,998.34
2018-05-26T04:55:46.800Z,998.34
2018-05-26T04:56:46.835Z,998.31
2018-05-26T04:57:46.873Z,998.28
2018-05-26T04:58:46.904Z,998.26
2018-05-26T04:59:46.941Z,998.24
2018-05-26T05:00:46.975Z,998.26
2018-05-26T05:01:47.017Z,998.25
2018-05-26T05:02:47.046Z,998.26
2018-05-26T05:03:47.089Z,998.23
2018-05-26T05:04:47.116Z,998.25
2018-05-26T05:05:47.151Z,998.25
2018-05-26T05:06:47.187Z,998.29
2018-05-26T05:07:47.222Z,998.22
2018-05-26T05:08:47.256Z,998.25
2018-05-26T05:09:47.291Z,998.24
2018-05-26T05:10:47.328Z,998.19
2018-05-26T05:11:47.363Z,998.21
2018-05-26T05:12:47.399Z,998.16
2018-05-26T05:13:47.432Z,998.23
2018-05-26T05:14:47.467Z,998.18
2018-05-26T05:15:47.503Z,998.20
2018-05-26T05:16:47.538Z,998.18
2018-05-26T05:17:47.573Z,998.21
2018-05-26T05:18:47.609Z,998.22
2018-05-26T05:19:47.644Z,998.24
2018-05-26T05:20:47.678Z,998.25
2018-05-26T05:21:47.716Z,998.27
2018-05-26T05:22:47.749Z,998.32
2018-05-26T05:23:47.788Z,998.31
2018-05-26T05:24:47.833Z,998.32
2018-05-26T05:25:47.854Z,998.34
2018-05-26T05:26:47.944Z,998.33
2018-05-26T05:27:47.927Z,998.36
2018-05-26T05:28:47.961Z,998.39
2018-05-26T05:29:47.997Z,998.40
2018-05-26T05:30:48.033Z,998.42
2018-05-26T05:31:48.068Z,998.41
2018-05-26T05:32:48.104Z,998.43
2018-05-26T05:33:48.139Z,998.43
2018-05-26T05:34:48.176Z,998.44
2018-05-26T05:35:48.212Z,998.39
2018-05-26T05:36:48.247Z,998.40
2018-05-26T05:37:48.282Z,998.39
2018-05-26T05:38:48.355Z,998.36
2018-05-26T05:39:48.353Z,998.39
2018-05-26T05:40:48.389Z,998.36
2018-05-26T05:41:48.427Z,998.35
2018-05-26T05:42:48.462Z,998.35
2018-05-26T05:43:48.498Z,998.35
2018-05-26T05:44:48.537Z,998.33
2018-05-26T05:45:48.570Z,998.34
2018-05-26T05:46:48.605Z,998.33
2018-05-26T05:47:48.643Z,998.31
2018-05-26T05:48:48.678Z,998.34
2018-05-26T05:49:48.715Z,998.25
2018-05-26T05:50:48.751Z,998.36
2018-05-26T05:51:48.788Z,998.32
2018-05-26T05:52:48.823Z,998.35
2018-05-26T05:53:48.860Z,998.36
2018-05-26T05:54:48.896Z,998.36
2018-05-26T05:55:48.933Z,998.37
2018-05-26T05:56:48.969Z,998.36
2018-05-26T05:57:49.006Z,998.36
2018-05-26T05:58:49.043Z,998.36
2018-05-26T05:59:49.079Z,998.33
2018-05-26T06:00:49.115Z,998.36
2018-05-26T06:01:49.150Z,998.36
2018-05-26T06:02:49.189Z,998.35
2018-05-26T06:03:49.225Z,998.34
2018-05-26T06:04:49.261Z,998.32
2018-05-26T06:05:49.298Z,998.32
2018-05-26T06:06:49.336Z,998.32
2018-05-26T06:07:49.372Z,998.35
2018-05-26T06:08:49.412Z,998.32
2018-05-26T06:09:49.445Z,998.31
2018-05-26T06:10:49.482Z,998.29
2018-05-26T06:11:49.521Z,998.26
2018-05-26T06:12:49.559Z,998.27
2018-05-26T06:13:49.593Z,998.27
2018-05-26T06:14:49.638Z,998.27
2018-05-26T06:15:49.666Z,998.25
2018-05-26T06:16:49.703Z,998.26
2018-05-26T06:17:49.740Z,998.29
2018-05-26T06:18:49.778Z,998.33
2018-05-26T06:19:49.815Z,998.30
2018-05-26T06:20:49.850Z,998.33
2018-05-26T06:21:49.889Z,998.30
2018-05-26T06:22:49.926Z,998.35
2018-05-26T06:23:49.964Z,998.37
2018-05-26T06:24:50.000Z,998.37
2018-05-26T06:25:50.037Z,998.38
2018-05-26T06:26:50.075Z,998.38
2018-05-26T06:27:50.112Z,998.40
2018-05-26T06:28:50.149Z,998.37
2018-05-26T06:29:50.187Z,998.42
2018-05-26T06:30:50.225Z,998.40
2018-05-26T06:31:50.268Z,998.46
2018-05-26T06:32:50.300Z,998.42
2018-05-26T06:33:50.337Z,998.42
2018-05-26T06:34:50.375Z,998.38
2018-05-26T06:35:50.460Z,998.46
2018-05-26T06:36:50.450Z,998.45
2018-05-26T06:37:50.488Z,998.48
2018-05-26T06:38:50.525Z,998.51
2018-05-26T06:39:50.564Z,998.46
2018-05-26T06:40:50.601Z,998.51
2018-05-26T06:41:50.640Z,998.49
2018-05-26T06:42:50.677Z,998.53
2018-05-26T06:43:50.715Z,998.53
2018-05-26T06:44:50.752Z,998.51
2018-05-26T06:45:50.792Z,998.52
2018-05-26T06:46:50.829Z,998.53
2018-05-26T06:47:50.870Z,998.54
2018-05-26T06:48:50.905Z,998.57
2018-05-26T06:49:50.944Z,998.57
2018-05-26T06:50:50.982Z,998.57
2018-05-26T06:51:51.021Z,998.54
2018-05-26T06:52:51.058Z,998.53
2018-05-26T06:53:51.098Z,998.49
2018-05-26T06:54:51.142Z,998.50
2018-05-26T06:55:51.175Z,998.50
2018-05-26T06:56:51.213Z,998.50
2018-05-26T06:57:51.251Z,998.52
2018-05-26T06:58:51.290Z,998.51
2018-05-26T06:59:51.333Z,998.53
2018-05-26T07:00:51.369Z,998.55
2018-05-26T07:01:51.407Z,998.57
2018-05-26T07:02:51.446Z,998.56
2018-05-26T07:03:51.484Z,998.58
2018-05-26T07:04:51.523Z,998.58
2018-05-26T07:05:51.562Z,998.59
2018-05-26T07:06:51.601Z,998.59
2018-05-26T07:07:51.641Z,998.58
2018-05-26T07:08:51.678Z,998.54
2018-05-26T07:09:51.720Z,998.57
2018-05-26T07:10:51.757Z,998.56
2018-05-26T07:11:51.798Z,998.51
2018-05-26T07:12:51.835Z,998.51
2018-05-26T07:13:51.876Z,998.47
2018-05-26T07:14:51.914Z,998.45
2018-05-26T07:15:51.954Z,998.45
2018-05-26T07:16:51.991Z,998.44
2018-05-26T07:17:52.034Z,998.42
2018-05-26T07:18:52.070Z,998.38
2018-05-26T07:19:52.115Z,998.38
2018-05-26T07:20:52.148Z,998.39
2018-05-26T07:21:52.187Z,998.38
2018-05-26T07:22:52.227Z,998.36
2018-05-26T07:23:52.266Z,998.41
2018-05-26T07:24:52.305Z,998.39
2018-05-26T07:25:52.343Z,998.39
2018-05-26T07:26:52.383Z,998.37
2018-05-26T07:27:52.436Z,998.37
2018-05-26T07:28:52.461Z,998.41
2018-05-26T07:29:52.499Z,998.39
2018-05-26T07:30:52.540Z,998.39
2018-05-26T07:31:52.580Z,998.35
2018-05-26T07:32:52.617Z,998.37
2018-05-26T07:33:52.660Z,998.42
2018-05-26T07:34:52.696Z,998.38
2018-05-26T07:35:52.735Z,998.41
2018-05-26T07:36:52.775Z,998.44
2018-05-26T07:37:52.815Z,998.48
2018-05-26T07:38:52.853Z,998.51
2018-05-26T07:39:52.893Z,998.54
2018-05-26T07:40:52.933Z,998.51
2018-05-26T07:41:52.972Z,998.56
2018-05-26T07:42:53.012Z,998.53
2018-05-26T07:43:53.051Z,998.54
2018-05-26T07:44:53.092Z,998.56
2018-05-26T07:45:53.130Z,998.58
2018-05-26T07:46:53.174Z,998.57
2018-05-26T07:47:53.209Z,998.57
2018-05-26T07:48:53.251Z,998.54
2018-05-26T07:49:53.288Z,998.58
2018-05-26T07:50:53.330Z,998.63
2018-05-26T07:51:53.422Z,998.59
2018-05-26T07:52:53.409Z,998.61
2018-05-26T07:53:53.448Z,998.65
2018-05-26T07:54:53.492Z,998.64
2018-05-26T07:55:53.528Z,998.62
2018-05-26T07:56:53.570Z,998.59
2018-05-26T07:57:53.610Z,998.62
2018-05-26T07:58:53.648Z,998.60
2018-05-26T07:59:53.688Z,998.58
2018-05-26T08:00:53.759Z,998.59
2018-05-26T08:01:53.768Z,998.55
2018-05-26T08:02:53.808Z,998.55
2018-05-26T08:03:53.849Z,998.51
2018-05-26T08:04:53.889Z,998.53
2018-05-26T08:05:53.929Z,998.57
2018-05-26T08:06:53.969Z,998.57
2018-05-26T08:07:54.010Z,998.47
2018-05-26T08:08:54.048Z,998.47
2018-05-26T08:09:54.089Z,998.49
2018-05-26T08:10:54.135Z,998.48
2018-05-26T08:11:54.171Z,998.50
2018-05-26T08:12:54.215Z,998.53
2018-05-26T08:13:54.254Z,998.58
2018-05-26T08:14:54.292Z,998.53
2018-05-26T08:15:54.335Z,998.55
2018-05-26T08:16:54.373Z,998.56
2018-05-26T08:17:54.413Z,998.57
2018-05-26T08:18:54.461Z,998.57
2018-05-26T08:19:54.495Z,998.57
2018-05-26T08:20:54.536Z,998.60
2018-05-26T08:21:54.583Z,998.54
2018-05-26T08:22:54.619Z,998.56
2018-05-26T08:23:54.658Z,998.56
2018-05-26T08:24:54.699Z,998.54
2018-05-26T08:25:54.740Z,998.56
2018-05-26T08:26:54.783Z,998.56
2018-05-26T08:27:54.823Z,998.53
2018-05-26T08:28:54.864Z,998.52
2018-05-26T08:29:54.904Z,998.50
2018-05-26T08:30:54.949Z,998.46
2018-05-26T08:31:54.986Z,998.51
2018-05-26T08:32:55.027Z,998.47
2018-05-26T08:33:55.070Z,998.47
2018-05-26T08:34:55.110Z,998.53
2018-05-26T08:35:55.152Z,998.56
2018-05-26T08:36:55.191Z,998.55
2018-05-26T08:37:55.234Z,998.52
2018-05-26T08:38:55.275Z,998.54
2018-05-26T08:39:55.317Z,998.57
2018-05-26T08:40:55.362Z,998.58
2018-05-26T08:41:55.400Z,998.58
2018-05-26T08:42:55.441Z,998.63
2018-05-26T08:43:55.503Z,998.63
2018-05-26T08:44:55.523Z,998.66
2018-05-26T08:45:55.565Z,998.70
2018-05-26T08:46:55.607Z,998.69
2018-05-26T08:47:55.650Z,998.72
2018-05-26T08:48:55.690Z,998.71
2018-05-26T08:49:55.736Z,998.72
2018-05-26T08:50:55.774Z,998.73
2018-05-26T08:51:55.815Z,998.68
2018-05-26T08:52:56.059Z,998.73
2018-05-26T08:53:55.917Z,998.73
2018-05-26T08:54:56.032Z,998.74
2018-05-26T08:55:55.987Z,998.75
2018-05-26T08:56:56.043Z,998.74
2018-05-26T08:57:56.286Z,998.71
2018-05-26T08:58:56.329Z,998.70
2018-05-26T08:59:56.150Z,998.73
2018-05-26T09:00:56.191Z,998.71
2018-05-26T09:01:56.233Z,998.73
2018-05-26T09:02:56.275Z,998.77
2018-05-26T09:03:56.316Z,998.71
2018-05-26T09:04:56.381Z,998.76
2018-05-26T09:06:56.443Z,998.75
2018-05-26T09:07:56.488Z,998.72
2018-05-26T09:08:56.527Z,998.73
2018-05-26T09:09:56.567Z,998.76
2018-05-26T09:10:56.612Z,998.70
2018-05-26T09:11:56.654Z,998.75
2018-05-26T09:12:56.694Z,998.70
2018-05-26T09:13:56.735Z,998.73
2018-05-26T09:14:56.793Z,998.77
2018-05-26T09:15:56.825Z,998.72
2018-05-26T09:16:56.864Z,998.71
2018-05-26T09:17:56.904Z,998.73
2018-05-26T09:18:56.948Z,998.71
2018-05-26T09:19:56.991Z,998.72
2018-05-26T09:20:57.032Z,998.73
2018-05-26T09:21:57.109Z,998.72
2018-05-26T09:22:57.117Z,998.73
2018-05-26T09:23:57.158Z,998.74
2018-05-26T09:24:57.202Z,998.72
2018-05-26T09:25:57.245Z,998.71
2018-05-26T09:26:57.291Z,998.71
2018-05-26T09:27:57.330Z,998.73
2018-05-26T09:28:57.371Z,998.74
2018-05-26T09:29:57.414Z,998.76
2018-05-26T09:30:57.457Z,998.75
2018-05-26T09:31:57.500Z,998.72
2018-05-26T09:33:00.168Z,998.74
2018-05-26T09:33:57.584Z,998.74
2018-05-26T09:34:57.626Z,998.75
2018-05-26T09:35:57.670Z,998.71
2018-05-26T09:36:58.039Z,998.76
2018-05-26T09:37:57.756Z,998.71
2018-05-26T09:38:57.799Z,998.74
2018-05-26T09:39:57.842Z,998.71
2018-05-26T09:40:57.883Z,998.71
2018-05-26T09:41:58.148Z,998.69
2018-05-26T09:42:57.971Z,998.70
2018-05-26T09:43:58.014Z,998.66
2018-05-26T09:44:58.060Z,998.67
2018-05-26T09:45:58.101Z,998.72
2018-05-26T09:46:59.155Z,998.71
2018-05-26T09:47:58.187Z,998.71
2018-05-26T09:48:58.230Z,998.73
2018-05-26T09:49:58.274Z,998.75
2018-05-26T09:50:58.319Z,998.73
2018-05-26T09:51:58.361Z,998.74
2018-05-26T09:52:58.404Z,998.75
2018-05-26T09:53:58.446Z,998.79
2018-05-26T09:54:58.490Z,998.77
2018-05-26T09:55:58.582Z,998.81
2018-05-26T09:56:58.578Z,998.80
2018-05-26T09:57:58.624Z,998.80
2018-05-26T09:58:58.666Z,998.84
2018-05-26T09:59:58.709Z,998.86
2018-05-26T10:00:58.752Z,998.87
2018-05-26T10:01:58.797Z,998.92
2018-05-26T10:02:58.841Z,998.92
2018-05-26T10:03:58.885Z,998.89
2018-05-26T10:04:58.927Z,998.92
2018-05-26T10:05:58.972Z,998.92
2018-05-26T10:06:59.017Z,998.96
2018-05-26T10:07:59.061Z,998.91
2018-05-26T10:08:59.104Z,998.90
2018-05-26T10:09:59.148Z,998.88
2018-05-26T10:10:59.191Z,998.93
2018-05-26T10:11:59.236Z,998.89
2018-05-26T10:12:59.280Z,998.83
2018-05-26T10:13:59.324Z,998.87
2018-05-26T10:14:59.373Z,998.86
2018-05-26T10:15:59.412Z,998.87
2018-05-26T10:16:59.456Z,998.87
2018-05-26T10:17:59.501Z,998.91
2018-05-26T10:18:59.545Z,998.92
2018-05-26T10:19:59.613Z,998.93
2018-05-26T10:20:59.636Z,998.93
2018-05-26T10:21:59.678Z,998.91
2018-05-26T10:22:59.722Z,998.90
2018-05-26T10:23:59.767Z,998.91
2018-05-26T10:24:59.811Z,998.96
2018-05-26T10:25:59.855Z,998.96
2018-05-26T10:26:59.900Z,998.94
2018-05-26T10:27:59.943Z,998.98
2018-05-26T10:28:59.988Z,998.93
2018-05-26T10:30:00.088Z,999.02
2018-05-26T10:31:00.079Z,999.07
2018-05-26T10:32:00.124Z,999.14
2018-05-26T10:33:00.171Z,999.13
2018-05-26T10:34:00.217Z,999.15
2018-05-26T10:35:00.267Z,999.21
2018-05-26T10:36:42.873Z,999.21
2018-05-26T10:37:42.917Z,999.25
2018-05-26T10:38:42.967Z,999.29
2018-05-26T10:39:43.015Z,999.32
2018-05-26T10:40:43.066Z,999.38
2018-05-26T10:41:43.113Z,999.43
2018-05-26T10:42:43.164Z,999.53
2018-05-26T10:43:43.213Z,999.56
2018-05-26T10:44:43.265Z,999.68
2018-05-26T10:45:43.315Z,999.69
2018-05-26T10:46:43.365Z,999.71
2018-05-26T10:47:43.416Z,999.71
2018-05-26T10:48:43.466Z,999.66
2018-05-26T10:49:43.519Z,999.65
2018-05-26T10:50:43.572Z,999.67
2018-05-26T10:51:43.623Z,999.65
2018-05-26T10:52:43.675Z,999.67
2018-05-26T10:53:43.729Z,999.66
2018-05-26T10:54:43.783Z,999.75
2018-05-26T10:55:43.833Z,999.67
2018-05-26T10:56:43.886Z,999.75
2018-05-26T10:57:43.958Z,999.77
2018-05-26T10:58:44.440Z,999.76
2018-05-26T10:59:44.045Z,999.78
2018-05-26T11:00:44.100Z,999.78
2018-05-26T11:01:44.152Z,999.83
2018-05-26T11:02:44.208Z,999.88
2018-05-26T11:03:44.259Z,999.88
2018-05-26T11:04:44.315Z,999.89
2018-05-26T11:05:44.368Z,999.80
2018-05-26T11:06:44.424Z,999.90
2018-05-26T11:07:44.476Z,999.95
2018-05-26T11:08:44.531Z,999.95
2018-05-26T11:09:44.586Z,999.95
2018-05-26T11:10:44.642Z,999.92
2018-05-26T11:11:44.694Z,999.98
2018-05-26T11:12:44.751Z,999.97
2018-05-26T11:13:44.808Z,1000.02
2018-05-26T11:14:44.859Z,1000.05
2018-05-26T11:15:44.914Z,1000.03
2018-05-26T11:16:44.969Z,1000.04
2018-05-26T11:17:45.225Z,1000.05
2018-05-26T11:18:45.080Z,1000.10
2018-05-26T11:19:45.133Z,1000.11
2018-05-26T11:20:45.190Z,1000.11
2018-05-26T11:21:45.245Z,1000.15
2018-05-26T11:22:45.306Z,1000.14
2018-05-26T11:23:45.358Z,1000.11
2018-05-26T11:24:45.477Z,1000.15
2018-05-26T11:25:45.466Z,1000.10
2018-05-26T11:26:45.522Z,1000.12
2018-05-26T11:27:45.575Z,1000.11
2018-05-26T11:28:45.633Z,1000.08
2018-05-26T11:29:45.699Z,1000.08
2018-05-26T11:30:45.778Z,1000.11
2018-05-26T11:31:45.799Z,1000.09
2018-05-26T11:32:45.858Z,1000.23
2018-05-26T11:33:45.910Z,1000.08
2018-05-26T11:34:45.968Z,1000.02
2018-05-26T11:35:46.026Z,1000.03
2018-05-26T11:36:46.079Z,999.99
2018-05-26T11:37:46.134Z,1000.03
2018-05-26T11:38:46.191Z,1000.10
2018-05-26T11:39:46.244Z,1000.20
2018-05-26T11:40:46.300Z,1000.02
2018-05-26T11:41:46.357Z,999.87
2018-05-26T11:42:46.419Z,999.99
2018-05-26T11:43:46.471Z,999.86
2018-05-26T11:44:46.522Z,999.97
2018-05-26T11:45:46.579Z,999.67
2018-05-26T11:46:46.635Z,999.84
2018-05-26T11:47:46.687Z,999.78
2018-05-26T11:48:46.741Z,999.65
2018-05-26T11:49:46.797Z,1000.05
2018-05-26T11:50:46.850Z,999.62
2018-05-26T11:51:46.904Z,1000.43
2018-05-26T11:52:46.963Z,999.84
2018-05-26T11:53:47.013Z,999.94
2018-05-26T11:54:47.065Z,1000.38
2018-05-26T11:55:47.119Z,1000.15
2018-05-26T11:56:47.172Z,1000.16
2018-05-26T11:57:47.226Z,1000.26
2018-05-26T11:58:47.280Z,1000.63
2018-05-26T11:59:47.336Z,1000.66
2018-05-26T12:00:47.392Z,1000.53
2018-05-26T12:01:47.475Z,1000.51
2018-05-26T12:02:47.498Z,1000.64
2018-05-26T12:03:47.548Z,1000.57
2018-05-26T12:04:47.602Z,1000.71
2018-05-26T12:05:47.657Z,1000.29
2018-05-26T12:06:47.711Z,1000.39
2018-05-26T12:07:47.766Z,1000.10
2018-05-26T12:08:47.820Z,1000.17
2018-05-26T12:09:47.877Z,1000.46
2018-05-26T12:10:47.943Z,1000.19
2018-05-26T12:11:47.986Z,1000.69
2018-05-26T12:12:48.047Z,1000.75
2018-05-26T12:13:48.097Z,1000.70
2018-05-26T12:14:48.152Z,1000.35
2018-05-26T12:15:48.207Z,1000.69
2018-05-26T12:16:48.263Z,1000.36
2018-05-26T12:17:48.318Z,1000.39
2018-05-26T12:18:48.375Z,1000.38
2018-05-26T12:19:48.428Z,1000.35
2018-05-26T12:20:48.484Z,1000.11
2018-05-26T12:21:48.541Z,1000.13
2018-05-26T12:22:48.597Z,999.99
2018-05-26T12:23:48.652Z,1000.13
2018-05-26T12:24:48.709Z,1000.68
2018-05-26T12:25:48.764Z,1000.54
2018-05-26T12:26:48.865Z,1000.07
2018-05-26T12:27:48.878Z,999.65
2018-05-26T12:28:48.930Z,999.52